Terminal Aerodrome Forecast
Issued by NWS

Home | Current Version | Previous Version | Text Only | Print | Product List | Glossary On
Versions: 1 2 3 4 5 6 7 8 9 10 11 12 13 14 15 16 17 18 19
000
FTUS42 KTBW 290059 AAA
TAFLAL
TAF AMD
KLAL 290059Z 2901/2924 24006KT P6SM VCSH SCT025 BKN035
      TEMPO 2901/2903 VRB10KT 4SM TSRA SCT015 BKN025CB
     FM290300 VRB05KT P6SM FEW010 BKN050 BKN200
     FM291300 25007KT P6SM SHRA FEW025 BKN040 BKN200
     FM291700 26009KT P6SM VCTS SCT025CB BKN050=

USA.gov is the U.S. government's official web portal to all federal, state and local government web resources and services.